createdAt,value
2022-07-26T00:01:32.035Z,9.10
2022-07-26T00:03:59.922Z,9.60
2022-07-26T00:06:26.660Z,9.85
2022-07-26T00:08:53.590Z,9.73
2022-07-26T00:11:20.814Z,10.73
2022-07-26T00:13:48.483Z,10.43
2022-07-26T00:16:15.337Z,10.02
2022-07-26T00:18:42.345Z,9.60
2022-07-26T00:21:08.939Z,11.63
2022-07-26T00:23:38.268Z,10.80
2022-07-26T00:26:04.852Z,11.88
2022-07-26T00:28:31.452Z,11.52
2022-07-26T00:30:58.081Z,11.68
2022-07-26T00:33:24.690Z,11.52
2022-07-26T00:35:51.325Z,11.50
2022-07-26T00:38:17.879Z,10.85
2022-07-26T00:40:45.130Z,11.95
2022-07-26T00:43:11.735Z,12.63
2022-07-26T00:45:38.336Z,12.85
2022-07-26T00:48:05.968Z,13.40
2022-07-26T00:50:32.727Z,13.68
2022-07-26T00:53:00.158Z,15.15
2022-07-26T00:55:27.042Z,13.35
2022-07-26T00:57:53.689Z,13.98
2022-07-26T01:00:23.867Z,13.68
2022-07-26T01:02:51.129Z,13.75
2022-07-26T01:05:17.895Z,15.23
2022-07-26T01:07:46.307Z,14.77
2022-07-26T01:10:13.342Z,15.25
2022-07-26T01:12:43.785Z,15.30
2022-07-26T01:15:12.221Z,16.00
2022-07-26T01:17:39.111Z,15.43
2022-07-26T01:20:07.901Z,13.93
2022-07-26T01:22:34.764Z,16.17
2022-07-26T01:25:01.409Z,15.80
2022-07-26T01:27:33.558Z,15.65
2022-07-26T01:30:00.793Z,16.45
2022-07-26T01:32:27.395Z,15.50
2022-07-26T01:34:54.056Z,15.73
2022-07-26T01:37:20.633Z,15.18
2022-07-26T01:39:47.281Z,15.38
2022-07-26T01:42:13.861Z,15.40
2022-07-26T01:44:40.788Z,15.32
2022-07-26T01:47:07.523Z,15.50
2022-07-26T01:49:34.208Z,13.82
2022-07-26T01:52:00.939Z,15.57
2022-07-26T01:54:27.533Z,15.30
2022-07-26T01:56:54.119Z,15.52
2022-07-26T01:59:20.736Z,15.63
2022-07-26T02:01:47.459Z,14.85
2022-07-26T02:04:34.078Z,16.75
2022-07-26T02:07:00.786Z,14.63
2022-07-26T02:09:38.251Z,15.35
2022-07-26T02:12:06.770Z,15.70
2022-07-26T02:14:33.359Z,16.05
2022-07-26T02:17:00.316Z,14.75
2022-07-26T02:19:30.592Z,14.20
2022-07-26T02:21:57.327Z,15.50
2022-07-26T02:24:24.432Z,13.73
2022-07-26T02:26:51.052Z,13.00
2022-07-26T02:29:17.660Z,13.63
2022-07-26T02:31:49.209Z,13.57
2022-07-26T02:34:16.234Z,13.35
2022-07-26T02:36:43.143Z,13.77
2022-07-26T02:39:09.920Z,14.15
2022-07-26T02:41:36.660Z,12.57
2022-07-26T02:44:03.561Z,12.55
2022-07-26T02:46:30.372Z,13.77
2022-07-26T02:48:57.080Z,12.20
2022-07-26T02:51:23.715Z,13.23
2022-07-26T02:53:50.339Z,12.90
2022-07-26T02:56:16.979Z,13.27
2022-07-26T02:58:43.559Z,12.32
2022-07-26T03:01:10.426Z,13.27
2022-07-26T03:03:37.157Z,12.52
2022-07-26T03:06:05.112Z,13.27
2022-07-26T03:08:31.916Z,13.00
2022-07-26T03:10:58.622Z,13.63
2022-07-26T03:13:25.167Z,13.77
2022-07-26T03:15:51.960Z,12.75
2022-07-26T03:18:18.649Z,13.57
2022-07-26T03:20:45.620Z,13.07
2022-07-26T03:23:12.203Z,13.02
2022-07-26T03:25:38.870Z,13.20
2022-07-26T03:28:05.675Z,13.13
2022-07-26T03:30:32.652Z,13.27
2022-07-26T03:32:59.232Z,13.35
2022-07-26T03:35:26.067Z,12.90
2022-07-26T03:37:52.776Z,15.35
2022-07-26T03:40:19.921Z,14.02
2022-07-26T03:42:47.708Z,14.38
2022-07-26T03:45:15.196Z,15.32
2022-07-26T03:47:42.147Z,14.43
2022-07-26T03:50:09.438Z,14.15
2022-07-26T03:52:36.027Z,15.32
2022-07-26T03:55:22.975Z,14.02
2022-07-26T03:57:49.594Z,14.15
2022-07-26T04:00:16.559Z,14.10
2022-07-26T04:02:43.467Z,14.48
2022-07-26T04:05:10.713Z,15.60
2022-07-26T04:07:52.685Z,16.75
2022-07-26T04:10:20.614Z,15.80
2022-07-26T04:12:47.176Z,15.63
2022-07-26T04:15:13.846Z,15.95
2022-07-26T04:17:41.493Z,16.85
2022-07-26T04:20:09.888Z,17.38
2022-07-26T04:22:37.388Z,16.25
2022-07-26T04:25:05.705Z,16.85
2022-07-26T04:27:32.826Z,14.25
2022-07-26T04:29:59.896Z,14.93
2022-07-26T04:32:26.481Z,14.70
2022-07-26T04:34:53.397Z,14.23
2022-07-26T04:37:20.106Z,14.98
2022-07-26T04:39:49.382Z,14.27
2022-07-26T04:42:19.995Z,15.13
2022-07-26T04:44:46.635Z,12.80
2022-07-26T04:47:13.455Z,11.07
2022-07-26T04:49:40.914Z,11.68
2022-07-26T04:52:07.524Z,12.50
2022-07-26T04:54:34.216Z,11.05
2022-07-26T04:57:00.992Z,9.02
2022-07-26T04:59:27.583Z,9.98
2022-07-26T05:01:59.360Z,7.25
2022-07-26T05:04:26.426Z,8.18
2022-07-26T05:06:53.281Z,8.07
2022-07-26T05:09:19.909Z,8.52
2022-07-26T05:11:46.597Z,8.20
2022-07-26T05:14:13.206Z,7.00
2022-07-26T05:16:44.417Z,7.07
2022-07-26T05:19:13.246Z,7.25
2022-07-26T05:21:40.309Z,7.47
2022-07-26T05:24:07.936Z,7.25
2022-07-26T05:26:34.852Z,7.05
2022-07-26T05:29:01.494Z,7.47
2022-07-26T05:31:28.179Z,7.63
2022-07-26T05:33:55.412Z,6.28
2022-07-26T05:36:22.204Z,7.50
2022-07-26T05:38:48.857Z,8.43
2022-07-26T05:41:15.488Z,7.93
2022-07-26T05:43:42.329Z,7.50
2022-07-26T05:46:10.601Z,9.13
2022-07-26T05:48:38.186Z,8.40
2022-07-26T05:51:05.230Z,8.30
2022-07-26T05:53:31.783Z,7.65
2022-07-26T05:55:58.360Z,7.60
2022-07-26T05:58:25.011Z,8.30
2022-07-26T06:00:51.661Z,8.65
2022-07-26T06:03:24.302Z,8.00
2022-07-26T06:05:56.883Z,8.77
2022-07-26T06:08:25.039Z,7.47
2022-07-26T06:10:52.448Z,7.97
2022-07-26T06:13:19.082Z,7.20
2022-07-26T06:15:46.023Z,7.20
2022-07-26T06:18:13.409Z,7.35
2022-07-26T06:20:44.789Z,7.53
2022-07-26T06:23:11.957Z,7.97
2022-07-26T06:25:39.038Z,6.93
2022-07-26T06:28:11.095Z,6.50
2022-07-26T06:30:39.105Z,6.57
2022-07-26T06:33:07.610Z,6.07
2022-07-26T06:35:36.035Z,6.35
2022-07-26T06:38:03.188Z,7.32
2022-07-26T06:40:29.939Z,7.03
2022-07-26T06:42:58.972Z,6.68
2022-07-26T06:45:29.744Z,5.93
2022-07-26T06:47:56.563Z,5.55
2022-07-26T06:50:25.770Z,4.80
2022-07-26T06:52:52.540Z,4.93
2022-07-26T06:55:19.334Z,5.20
2022-07-26T06:57:50.452Z,4.25
2022-07-26T07:00:18.333Z,4.32
2022-07-26T07:02:45.096Z,4.20
2022-07-26T07:05:12.348Z,4.25
2022-07-26T07:07:39.188Z,4.35
2022-07-26T07:10:09.553Z,4.40
2022-07-26T07:12:36.326Z,4.93
2022-07-26T07:15:03.058Z,5.07
2022-07-26T07:17:29.626Z,3.85
2022-07-26T07:19:56.613Z,4.18
2022-07-26T07:22:23.179Z,3.97
2022-07-26T07:24:49.739Z,3.65
2022-07-26T07:27:16.304Z,3.70
2022-07-26T07:29:43.424Z,3.70
2022-07-26T07:32:16.097Z,3.58
2022-07-26T07:34:46.320Z,3.38
2022-07-26T07:37:14.440Z,4.47
2022-07-26T07:39:41.480Z,3.58
2022-07-26T07:42:08.142Z,3.72
2022-07-26T07:44:34.779Z,3.05
2022-07-26T07:47:02.028Z,3.42
2022-07-26T07:49:28.827Z,4.32
2022-07-26T07:51:55.509Z,4.00
2022-07-26T07:54:22.313Z,3.78
2022-07-26T07:56:49.182Z,3.63
2022-07-26T07:59:15.786Z,3.15
2022-07-26T08:01:42.783Z,2.90
2022-07-26T08:04:11.826Z,3.17
2022-07-26T08:06:40.899Z,2.85
2022-07-26T08:09:08.586Z,3.17
2022-07-26T08:11:36.142Z,3.20
2022-07-26T08:14:02.854Z,3.20
2022-07-26T08:16:30.645Z,3.20
2022-07-26T08:18:58.452Z,2.88
2022-07-26T08:21:28.311Z,3.13
2022-07-26T08:23:56.502Z,2.95
2022-07-26T08:26:23.145Z,2.72
2022-07-26T08:29:00.126Z,2.45
2022-07-26T08:31:28.305Z,2.80
2022-07-26T08:33:55.154Z,3.20
2022-07-26T08:36:21.884Z,2.72
2022-07-26T08:38:48.696Z,2.95
2022-07-26T08:41:17.062Z,2.40
2022-07-26T08:43:51.879Z,2.75
2022-07-26T08:46:26.522Z,2.35
2022-07-26T08:48:55.714Z,3.03
2022-07-26T08:51:24.636Z,2.63
2022-07-26T08:54:02.194Z,2.33
2022-07-26T08:56:31.490Z,3.38
2022-07-26T08:58:58.090Z,3.10
2022-07-26T09:01:24.868Z,2.67
2022-07-26T09:03:51.551Z,2.80
2022-07-26T09:06:21.340Z,2.83
2022-07-26T09:08:52.595Z,2.40
2022-07-26T09:11:27.110Z,3.03
2022-07-26T09:14:04.646Z,2.72
2022-07-26T09:16:34.141Z,2.85
2022-07-26T09:19:21.537Z,2.30
2022-07-26T09:21:49.254Z,3.00
2022-07-26T09:24:31.420Z,2.47
2022-07-26T09:27:00.084Z,2.40
2022-07-26T09:29:28.455Z,2.50
2022-07-26T09:32:17.150Z,2.90
2022-07-26T09:34:58.743Z,2.83
2022-07-26T09:37:35.723Z,3.25
2022-07-26T09:40:06.385Z,2.65
2022-07-26T09:42:33.018Z,2.63
2022-07-26T09:45:00.732Z,2.45
2022-07-26T09:47:36.772Z,2.58
2022-07-26T09:50:17.031Z,2.60
2022-07-26T09:53:10.549Z,2.60
2022-07-26T09:55:46.197Z,2.45
2022-07-26T09:58:17.509Z,2.53
2022-07-26T10:00:44.373Z,2.50
2022-07-26T10:03:11.282Z,1.95
2022-07-26T10:05:38.253Z,2.45
2022-07-26T10:08:05.870Z,2.60
2022-07-26T10:10:34.416Z,2.20
2022-07-26T10:13:03.067Z,2.83
2022-07-26T10:15:39.802Z,2.30
2022-07-26T10:18:16.560Z,2.13
2022-07-26T10:20:46.384Z,2.08
2022-07-26T10:23:32.192Z,2.22
2022-07-26T10:26:00.260Z,2.03
2022-07-26T10:28:29.510Z,2.33
2022-07-26T10:31:21.090Z,3.17
2022-07-26T10:33:50.582Z,2.50
2022-07-26T10:36:27.744Z,2.75
2022-07-26T10:38:59.476Z,2.30
2022-07-26T10:41:38.505Z,2.35
2022-07-26T10:44:19.255Z,2.47
2022-07-26T10:47:11.226Z,2.65
2022-07-26T10:49:43.932Z,2.40
2022-07-26T10:52:22.394Z,2.70
2022-07-26T10:55:01.479Z,2.70
2022-07-26T10:57:30.807Z,2.85
2022-07-26T10:59:58.901Z,3.00
2022-07-26T11:02:32.710Z,3.28
2022-07-26T11:05:13.748Z,3.15
2022-07-26T11:07:53.731Z,3.10
2022-07-26T11:10:28.916Z,2.63
2022-07-26T11:13:07.036Z,2.88
2022-07-26T11:15:35.118Z,2.38
2022-07-26T11:18:11.875Z,2.50
2022-07-26T11:20:39.124Z,2.50
2022-07-26T11:23:23.492Z,2.22
2022-07-26T11:26:11.971Z,2.35
2022-07-26T11:28:51.063Z,2.15
2022-07-26T11:31:20.059Z,2.13
2022-07-26T11:33:51.584Z,2.38
2022-07-26T11:36:34.092Z,2.25
2022-07-26T11:39:02.931Z,2.30
2022-07-26T11:41:34.984Z,2.47
2022-07-26T11:44:02.747Z,2.10
2022-07-26T11:46:48.440Z,1.92
2022-07-26T11:49:41.574Z,2.03
2022-07-26T11:52:12.057Z,1.90
2022-07-26T11:54:50.659Z,2.33
2022-07-26T11:57:18.671Z,1.73
2022-07-26T11:59:47.016Z,1.90
2022-07-26T12:02:15.204Z,1.80
2022-07-26T12:04:43.809Z,1.70
2022-07-26T12:07:18.723Z,1.48
2022-07-26T12:09:50.973Z,1.63
2022-07-26T12:12:29.428Z,1.70
2022-07-26T12:15:01.424Z,1.70
2022-07-26T12:17:35.203Z,1.90
2022-07-26T12:20:17.379Z,2.27
2022-07-26T12:23:00.489Z,1.98
2022-07-26T12:25:28.652Z,1.63
2022-07-26T12:27:55.569Z,1.98
2022-07-26T12:30:22.607Z,2.13
2022-07-26T12:32:52.101Z,1.55
2022-07-26T12:35:29.478Z,1.85
2022-07-26T12:37:57.061Z,2.00
2022-07-26T12:40:26.306Z,2.22
2022-07-26T12:43:02.815Z,2.15
2022-07-26T12:45:34.339Z,1.65
2022-07-26T12:48:06.980Z,1.67
2022-07-26T12:50:33.565Z,1.38
2022-07-26T12:53:06.436Z,1.40
2022-07-26T12:55:34.060Z,1.30
2022-07-26T12:58:00.795Z,0.85
2022-07-26T13:00:29.608Z,1.00
2022-07-26T13:02:57.500Z,0.90
2022-07-26T13:05:24.255Z,0.90
2022-07-26T13:07:52.488Z,1.05
2022-07-26T13:10:35.902Z,1.17
2022-07-26T13:13:03.717Z,1.30
2022-07-26T13:15:36.174Z,1.55
2022-07-26T13:18:05.080Z,1.17
2022-07-26T13:20:31.741Z,0.98
2022-07-26T13:22:58.386Z,1.08
2022-07-26T13:25:25.556Z,1.30
2022-07-26T13:27:56.084Z,0.95
2022-07-26T13:30:22.800Z,1.60
2022-07-26T13:32:49.447Z,1.55
2022-07-26T13:35:16.019Z,0.95
2022-07-26T13:37:42.604Z,1.02
2022-07-26T13:40:09.855Z,0.90
2022-07-26T13:42:38.194Z,0.95
2022-07-26T13:45:06.929Z,1.25
2022-07-26T13:47:33.631Z,1.05
2022-07-26T13:50:00.344Z,0.80
2022-07-26T13:52:27.039Z,0.70
2022-07-26T13:54:53.607Z,0.80
2022-07-26T13:57:20.175Z,0.77
2022-07-26T13:59:46.747Z,0.55
2022-07-26T14:02:13.579Z,0.77
2022-07-26T14:04:40.309Z,0.40
2022-07-26T14:07:06.867Z,0.77
2022-07-26T14:09:33.489Z,1.17
2022-07-26T14:12:00.130Z,0.95
2022-07-26T14:14:26.744Z,1.00
2022-07-26T14:16:53.350Z,0.70
2022-07-26T14:19:20.077Z,0.80
2022-07-26T14:21:51.560Z,1.17
2022-07-26T14:24:27.124Z,1.38
2022-07-26T14:26:58.603Z,0.60
2022-07-26T14:29:26.165Z,0.75
2022-07-26T14:31:53.152Z,0.80
2022-07-26T14:34:19.942Z,0.63
2022-07-26T14:36:46.565Z,0.95
2022-07-26T14:39:13.180Z,0.70
2022-07-26T14:41:39.912Z,1.15
2022-07-26T14:44:06.733Z,0.52
2022-07-26T14:46:33.461Z,0.98
2022-07-26T14:49:00.083Z,1.13
2022-07-26T14:51:26.795Z,0.88
2022-07-26T14:53:53.487Z,0.98
2022-07-26T14:56:20.268Z,0.50
2022-07-26T14:58:48.000Z,0.70
2022-07-26T15:01:14.729Z,0.57
2022-07-26T15:03:41.447Z,0.75
2022-07-26T15:06:08.026Z,0.60
2022-07-26T15:08:34.659Z,0.95
2022-07-26T15:11:01.305Z,0.60
2022-07-26T15:13:27.981Z,0.90
2022-07-26T15:15:54.556Z,0.80
2022-07-26T15:18:21.112Z,0.77
2022-07-26T15:20:50.191Z,0.75
2022-07-26T15:23:16.924Z,1.15
2022-07-26T15:25:43.579Z,0.70
2022-07-26T15:28:10.288Z,1.35
2022-07-26T15:30:37.141Z,1.00
2022-07-26T15:33:03.799Z,0.80
2022-07-26T15:35:30.492Z,0.70
2022-07-26T15:37:57.796Z,1.00
2022-07-26T15:40:24.909Z,1.20
2022-07-26T15:42:53.013Z,1.00
2022-07-26T15:45:21.358Z,1.15
2022-07-26T15:47:54.855Z,1.13
2022-07-26T15:50:22.874Z,0.60
2022-07-26T15:52:49.516Z,0.77
2022-07-26T15:55:18.452Z,0.52
2022-07-26T15:57:46.753Z,0.70
2022-07-26T16:00:15.950Z,0.77
2022-07-26T16:02:42.692Z,0.60
2022-07-26T16:05:10.567Z,1.00
2022-07-26T16:07:38.134Z,0.90
2022-07-26T16:10:05.317Z,0.90
2022-07-26T16:12:32.831Z,1.10
2022-07-26T16:14:59.557Z,0.70
2022-07-26T16:17:26.180Z,0.70
2022-07-26T16:19:52.960Z,0.70
2022-07-26T16:22:20.589Z,0.88
2022-07-26T16:24:47.189Z,0.90
2022-07-26T16:27:13.821Z,0.85
2022-07-26T16:29:40.448Z,0.80
2022-07-26T16:32:09.397Z,0.93
2022-07-26T16:34:36.003Z,1.10
2022-07-26T16:37:02.924Z,1.40
2022-07-26T16:39:29.579Z,0.98
2022-07-26T16:41:56.248Z,1.17
2022-07-26T16:44:24.159Z,1.02
2022-07-26T16:46:51.654Z,0.52
2022-07-26T16:49:18.336Z,0.57
2022-07-26T16:51:45.002Z,0.63
2022-07-26T16:54:11.599Z,0.93
2022-07-26T16:56:38.218Z,0.75
2022-07-26T16:59:10.043Z,0.73
2022-07-26T17:01:37.081Z,0.35
2022-07-26T17:04:03.750Z,1.10
2022-07-26T17:06:31.301Z,0.50
2022-07-26T17:08:57.949Z,0.70
2022-07-26T17:11:24.553Z,1.05
2022-07-26T17:13:51.209Z,0.70
2022-07-26T17:16:21.498Z,0.70
2022-07-26T17:18:51.183Z,0.60
2022-07-26T17:21:17.739Z,0.70
2022-07-26T17:23:44.329Z,0.82
2022-07-26T17:26:11.060Z,0.70
2022-07-26T17:28:37.863Z,0.77
2022-07-26T17:31:04.439Z,1.05
2022-07-26T17:33:31.103Z,0.88
2022-07-26T17:36:00.725Z,0.60
2022-07-26T17:38:30.095Z,0.45
2022-07-26T17:40:56.892Z,0.80
2022-07-26T17:43:23.549Z,0.68
2022-07-26T17:45:50.584Z,0.60
2022-07-26T17:48:17.180Z,0.77
2022-07-26T17:50:43.761Z,0.43
2022-07-26T17:53:10.345Z,0.85
2022-07-26T17:55:37.042Z,0.77
2022-07-26T17:58:03.619Z,0.80
2022-07-26T18:00:30.237Z,0.63
2022-07-26T18:02:57.776Z,1.10
2022-07-26T18:05:32.081Z,1.48
2022-07-26T18:08:00.694Z,0.80
2022-07-26T18:10:28.215Z,0.70
2022-07-26T18:12:55.128Z,0.82
2022-07-26T18:15:21.840Z,1.10
2022-07-26T18:17:48.401Z,0.77
2022-07-26T18:20:15.070Z,1.05
2022-07-26T18:22:41.671Z,0.90
2022-07-26T18:25:12.777Z,0.80
2022-07-26T18:27:39.361Z,1.00
2022-07-26T18:30:06.649Z,0.40
2022-07-26T18:32:34.321Z,0.57
2022-07-26T18:35:00.895Z,1.10
2022-07-26T18:37:27.560Z,0.63
2022-07-26T18:39:57.848Z,0.70
2022-07-26T18:42:24.803Z,1.17
2022-07-26T18:44:51.566Z,0.98
2022-07-26T18:47:18.267Z,0.88
2022-07-26T18:49:44.888Z,1.55
2022-07-26T18:52:11.563Z,0.70
2022-07-26T18:54:38.182Z,0.95
2022-07-26T18:57:04.971Z,0.73
2022-07-26T18:59:31.776Z,0.65
2022-07-26T19:02:00.053Z,0.73
2022-07-26T19:04:27.603Z,0.88
2022-07-26T19:06:54.575Z,0.57
2022-07-26T19:09:21.316Z,0.90
2022-07-26T19:11:48.057Z,1.00
2022-07-26T19:14:14.736Z,0.65
2022-07-26T19:16:41.325Z,0.68
2022-07-26T19:19:07.902Z,0.77
2022-07-26T19:21:34.497Z,2.08
2022-07-26T19:24:01.060Z,0.60
2022-07-26T19:26:27.750Z,0.93
2022-07-26T19:28:54.449Z,0.65
2022-07-26T19:31:21.726Z,1.20
2022-07-26T19:33:48.361Z,1.02
2022-07-26T19:36:18.202Z,1.58
2022-07-26T19:38:52.984Z,0.80
2022-07-26T19:41:21.053Z,0.80
2022-07-26T19:43:47.599Z,0.93
2022-07-26T19:46:14.452Z,0.80
2022-07-26T19:48:41.200Z,0.90
2022-07-26T19:51:07.925Z,0.73
2022-07-26T19:53:34.484Z,0.47
2022-07-26T19:56:01.390Z,0.85
2022-07-26T19:58:29.236Z,0.45
2022-07-26T20:00:55.903Z,0.70
2022-07-26T20:03:22.569Z,0.60
2022-07-26T20:05:50.196Z,0.90
2022-07-26T20:08:16.853Z,1.13
2022-07-26T20:10:43.511Z,0.90
2022-07-26T20:13:10.080Z,0.93
2022-07-26T20:15:36.636Z,0.88
2022-07-26T20:18:04.190Z,0.60
2022-07-26T20:20:30.939Z,1.08
2022-07-26T20:25:25.090Z,0.80
2022-07-26T20:27:51.715Z,0.93
2022-07-26T20:30:18.623Z,0.93
2022-07-26T20:32:45.244Z,1.08
2022-07-26T20:35:11.943Z,1.15
2022-07-26T20:37:38.804Z,1.15
2022-07-26T20:40:08.318Z,0.98
2022-07-26T20:42:36.689Z,1.00
2022-07-26T20:45:11.298Z,1.00
2022-07-26T20:47:43.143Z,2.30
2022-07-26T20:50:11.570Z,1.60
2022-07-26T20:52:38.552Z,1.08
2022-07-26T20:55:05.810Z,0.88
2022-07-26T20:57:32.409Z,1.38
2022-07-26T20:59:59.000Z,1.83
2022-07-26T21:02:25.989Z,1.05
2022-07-26T21:04:52.727Z,0.95
2022-07-26T21:07:19.629Z,1.20
2022-07-26T21:09:46.206Z,0.60
2022-07-26T21:12:12.803Z,0.93
2022-07-26T21:14:39.412Z,0.77
2022-07-26T21:17:11.307Z,1.35
2022-07-26T21:19:38.392Z,1.55
2022-07-26T21:22:05.017Z,1.05
2022-07-26T21:24:31.640Z,0.93
2022-07-26T21:26:58.267Z,1.17
2022-07-26T21:29:24.841Z,1.20
2022-07-26T21:31:51.425Z,0.82
2022-07-26T21:34:18.399Z,1.52
2022-07-26T21:36:45.178Z,0.90
2022-07-26T21:39:12.488Z,0.95
2022-07-26T21:41:39.377Z,1.08
2022-07-26T21:44:06.134Z,1.70
2022-07-26T21:46:32.777Z,1.27
2022-07-26T21:48:59.455Z,1.13
2022-07-26T21:51:26.115Z,1.63
2022-07-26T21:53:52.870Z,1.50
2022-07-26T21:56:19.681Z,1.67
2022-07-26T21:58:46.868Z,1.13
2022-07-26T22:01:14.545Z,1.10
2022-07-26T22:03:42.335Z,1.55
2022-07-26T22:06:10.175Z,1.20
2022-07-26T22:08:39.260Z,1.02
2022-07-26T22:11:06.025Z,1.13
2022-07-26T22:13:32.954Z,1.25
2022-07-26T22:15:59.700Z,1.20
2022-07-26T22:18:26.688Z,1.08
2022-07-26T22:20:53.913Z,1.33
2022-07-26T22:23:22.957Z,1.20
2022-07-26T22:25:49.781Z,1.30
2022-07-26T22:28:17.790Z,1.30
2022-07-26T22:30:45.833Z,1.02
2022-07-26T22:33:12.566Z,1.40
2022-07-26T22:35:39.231Z,1.10
2022-07-26T22:38:08.118Z,1.30
2022-07-26T22:40:35.639Z,1.42
2022-07-26T22:43:02.873Z,1.35
2022-07-26T22:45:30.577Z,0.75
2022-07-26T22:47:58.237Z,1.75
2022-07-26T22:50:25.457Z,1.67
2022-07-26T22:52:52.614Z,1.30
2022-07-26T22:55:19.860Z,1.80
2022-07-26T22:57:46.715Z,2.03
2022-07-26T23:00:17.156Z,1.33
2022-07-26T23:02:44.244Z,1.20
2022-07-26T23:05:11.526Z,1.83
2022-07-26T23:07:38.359Z,1.73
2022-07-26T23:10:08.544Z,1.08
2022-07-26T23:12:36.143Z,1.83
2022-07-26T23:15:04.357Z,2.53
2022-07-26T23:17:31.188Z,1.52
2022-07-26T23:19:58.012Z,1.08
2022-07-26T23:22:24.660Z,1.30
2022-07-26T23:24:51.222Z,1.10
2022-07-26T23:27:20.152Z,1.58
2022-07-26T23:29:48.304Z,1.50
2022-07-26T23:32:15.946Z,1.38
2022-07-26T23:34:42.824Z,1.27
2022-07-26T23:37:09.551Z,1.63
2022-07-26T23:39:36.436Z,1.77
2022-07-26T23:42:03.464Z,1.88
2022-07-26T23:44:31.148Z,2.08
2022-07-26T23:46:58.754Z,1.75
2022-07-26T23:49:25.957Z,1.67
2022-07-26T23:51:52.707Z,1.83
2022-07-26T23:54:19.642Z,1.83
2022-07-26T23:56:46.279Z,2.60
2022-07-26T23:59:13.639Z,1.85
